sensor_id;sensor_type;location;lat;lon;timestamp;P1;durP1;ratioP1;P2;durP2;ratioP2
18304;SDS011;9278;52.156;21.048;2023-01-15T00:02:08;26.45;;;10.75;;
18304;SDS011;9278;52.156;21.048;2023-01-15T00:04:38;24.33;;;10.52;;
18304;SDS011;9278;52.156;21.048;2023-01-15T00:07:06;26.58;;;11.05;;
18304;SDS011;9278;52.156;21.048;2023-01-15T00:09:34;24.63;;;10.95;;
18304;SDS011;9278;52.156;21.048;2023-01-15T00:12:03;23.50;;;10.43;;
18304;SDS011;9278;52.156;21.048;2023-01-15T00:14:31;23.55;;;10.32;;
18304;SDS011;9278;52.156;21.048;2023-01-15T00:17:00;23.50;;;10.82;;
18304;SDS011;9278;52.156;21.048;2023-01-15T00:19:29;20.27;;;9.70;;
18304;SDS011;9278;52.156;21.048;2023-01-15T00:21:57;21.77;;;9.70;;
18304;SDS011;9278;52.156;21.048;2023-01-15T00:24:26;24.17;;;10.85;;
18304;SDS011;9278;52.156;21.048;2023-01-15T00:27:11;22.70;;;10.35;;
18304;SDS011;9278;52.156;21.048;2023-01-15T00:29:57;19.45;;;9.38;;
18304;SDS011;9278;52.156;21.048;2023-01-15T00:32:25;23.45;;;10.27;;
18304;SDS011;9278;52.156;21.048;2023-01-15T00:34:56;21.25;;;9.25;;
18304;SDS011;9278;52.156;21.048;2023-01-15T00:37:26;20.63;;;9.73;;
18304;SDS011;9278;52.156;21.048;2023-01-15T00:39:54;23.30;;;9.23;;
18304;SDS011;9278;52.156;21.048;2023-01-15T00:42:22;22.98;;;10.23;;
18304;SDS011;9278;52.156;21.048;2023-01-15T00:44:51;17.33;;;8.75;;
18304;SDS011;9278;52.156;21.048;2023-01-15T00:47:19;19.38;;;9.02;;
18304;SDS011;9278;52.156;21.048;2023-01-15T00:49:47;21.25;;;9.07;;
18304;SDS011;9278;52.156;21.048;2023-01-15T00:52:18;18.35;;;8.48;;
18304;SDS011;9278;52.156;21.048;2023-01-15T00:54:46;18.98;;;8.52;;
18304;SDS011;9278;52.156;21.048;2023-01-15T00:57:14;18.08;;;8.70;;
18304;SDS011;9278;52.156;21.048;2023-01-15T00:59:43;18.73;;;8.80;;
18304;SDS011;9278;52.156;21.048;2023-01-15T01:02:11;16.77;;;8.07;;
18304;SDS011;9278;52.156;21.048;2023-01-15T01:04:40;18.75;;;9.25;;
18304;SDS011;9278;52.156;21.048;2023-01-15T01:07:08;23.70;;;8.60;;
18304;SDS011;9278;52.156;21.048;2023-01-15T01:09:38;15.82;;;7.72;;
18304;SDS011;9278;52.156;21.048;2023-01-15T01:12:06;18.52;;;8.15;;
18304;SDS011;9278;52.156;21.048;2023-01-15T01:14:35;16.77;;;7.97;;
18304;SDS011;9278;52.156;21.048;2023-01-15T01:17:03;17.75;;;7.78;;
18304;SDS011;9278;52.156;21.048;2023-01-15T01:19:31;18.48;;;7.68;;
18304;SDS011;9278;52.156;21.048;2023-01-15T01:22:00;18.15;;;7.80;;
18304;SDS011;9278;52.156;21.048;2023-01-15T01:24:28;17.23;;;7.77;;
18304;SDS011;9278;52.156;21.048;2023-01-15T01:26:57;19.13;;;8.43;;
18304;SDS011;9278;52.156;21.048;2023-01-15T01:29:26;19.65;;;8.40;;
18304;SDS011;9278;52.156;21.048;2023-01-15T01:31:54;16.50;;;7.72;;
18304;SDS011;9278;52.156;21.048;2023-01-15T01:34:22;16.63;;;7.78;;
18304;SDS011;9278;52.156;21.048;2023-01-15T01:36:51;17.40;;;7.63;;
18304;SDS011;9278;52.156;21.048;2023-01-15T01:39:19;15.48;;;7.18;;
18304;SDS011;9278;52.156;21.048;2023-01-15T01:41:47;19.23;;;8.45;;
18304;SDS011;9278;52.156;21.048;2023-01-15T01:47:26;16.80;;;7.57;;
18304;SDS011;9278;52.156;21.048;2023-01-15T01:49:58;16.02;;;7.68;;
18304;SDS011;9278;52.156;21.048;2023-01-15T01:52:31;17.02;;;7.30;;
18304;SDS011;9278;52.156;21.048;2023-01-15T01:55:06;18.40;;;7.80;;
18304;SDS011;9278;52.156;21.048;2023-01-15T01:57:37;14.73;;;7.22;;
18304;SDS011;9278;52.156;21.048;2023-01-15T02:00:08;16.47;;;7.13;;
18304;SDS011;9278;52.156;21.048;2023-01-15T02:02:39;15.68;;;7.68;;
18304;SDS011;9278;52.156;21.048;2023-01-15T02:05:09;17.77;;;7.50;;
18304;SDS011;9278;52.156;21.048;2023-01-15T02:07:42;16.70;;;7.60;;
18304;SDS011;9278;52.156;21.048;2023-01-15T02:10:14;15.70;;;7.27;;
18304;SDS011;9278;52.156;21.048;2023-01-15T02:12:45;13.20;;;6.50;;
18304;SDS011;9278;52.156;21.048;2023-01-15T02:15:21;17.40;;;6.97;;
18304;SDS011;9278;52.156;21.048;2023-01-15T02:17:59;14.10;;;6.73;;
18304;SDS011;9278;52.156;21.048;2023-01-15T02:20:31;15.17;;;7.10;;
18304;SDS011;9278;52.156;21.048;2023-01-15T02:23:26;15.10;;;7.00;;
18304;SDS011;9278;52.156;21.048;2023-01-15T02:29:18;16.42;;;7.57;;
18304;SDS011;9278;52.156;21.048;2023-01-15T02:31:53;13.93;;;6.55;;
18304;SDS011;9278;52.156;21.048;2023-01-15T02:34:22;15.63;;;7.05;;
18304;SDS011;9278;52.156;21.048;2023-01-15T02:36:56;14.23;;;7.15;;
18304;SDS011;9278;52.156;21.048;2023-01-15T02:39:27;15.80;;;7.17;;
18304;SDS011;9278;52.156;21.048;2023-01-15T02:41:59;16.08;;;6.85;;
18304;SDS011;9278;52.156;21.048;2023-01-15T02:44:37;17.90;;;6.97;;
18304;SDS011;9278;52.156;21.048;2023-01-15T02:47:11;16.15;;;7.05;;
18304;SDS011;9278;52.156;21.048;2023-01-15T02:49:41;17.38;;;8.00;;
18304;SDS011;9278;52.156;21.048;2023-01-15T02:52:15;18.17;;;7.40;;
18304;SDS011;9278;52.156;21.048;2023-01-15T02:54:49;15.93;;;7.13;;
18304;SDS011;9278;52.156;21.048;2023-01-15T02:57:23;18.95;;;7.78;;
18304;SDS011;9278;52.156;21.048;2023-01-15T02:59:57;16.45;;;7.28;;
18304;SDS011;9278;52.156;21.048;2023-01-15T03:02:31;17.60;;;7.45;;
18304;SDS011;9278;52.156;21.048;2023-01-15T03:05:05;17.95;;;7.05;;
18304;SDS011;9278;52.156;21.048;2023-01-15T03:07:39;18.27;;;7.97;;
18304;SDS011;9278;52.156;21.048;2023-01-15T03:10:13;14.93;;;7.55;;
18304;SDS011;9278;52.156;21.048;2023-01-15T03:12:43;13.83;;;6.90;;
18304;SDS011;9278;52.156;21.048;2023-01-15T03:15:43;17.87;;;7.90;;
18304;SDS011;9278;52.156;21.048;2023-01-15T03:18:36;20.83;;;7.80;;
18304;SDS011;9278;52.156;21.048;2023-01-15T03:21:12;18.47;;;7.70;;
18304;SDS011;9278;52.156;21.048;2023-01-15T03:23:50;16.23;;;7.07;;
18304;SDS011;9278;52.156;21.048;2023-01-15T03:26:24;18.25;;;8.05;;
18304;SDS011;9278;52.156;21.048;2023-01-15T03:28:54;17.35;;;7.13;;
18304;SDS011;9278;52.156;21.048;2023-01-15T03:31:24;16.00;;;7.28;;
18304;SDS011;9278;52.156;21.048;2023-01-15T03:33:55;17.60;;;7.43;;
18304;SDS011;9278;52.156;21.048;2023-01-15T03:36:25;18.08;;;8.10;;
18304;SDS011;9278;52.156;21.048;2023-01-15T03:38:59;17.63;;;7.43;;
18304;SDS011;9278;52.156;21.048;2023-01-15T03:41:49;18.67;;;7.32;;
18304;SDS011;9278;52.156;21.048;2023-01-15T03:44:24;17.98;;;7.25;;
18304;SDS011;9278;52.156;21.048;2023-01-15T03:47:07;14.70;;;6.45;;
18304;SDS011;9278;52.156;21.048;2023-01-15T03:49:46;15.48;;;6.85;;
18304;SDS011;9278;52.156;21.048;2023-01-15T03:52:32;15.10;;;6.93;;
18304;SDS011;9278;52.156;21.048;2023-01-15T03:55:11;15.30;;;7.00;;
18304;SDS011;9278;52.156;21.048;2023-01-15T03:57:53;13.97;;;7.27;;
18304;SDS011;9278;52.156;21.048;2023-01-15T04:00:25;17.52;;;7.60;;
18304;SDS011;9278;52.156;21.048;2023-01-15T04:03:00;12.93;;;6.83;;
18304;SDS011;9278;52.156;21.048;2023-01-15T04:05:32;17.83;;;7.63;;
18304;SDS011;9278;52.156;21.048;2023-01-15T04:08:02;15.57;;;6.85;;
18304;SDS011;9278;52.156;21.048;2023-01-15T04:10:34;14.43;;;6.53;;
18304;SDS011;9278;52.156;21.048;2023-01-15T04:13:05;15.25;;;6.88;;
18304;SDS011;9278;52.156;21.048;2023-01-15T04:15:33;15.10;;;7.07;;
18304;SDS011;9278;52.156;21.048;2023-01-15T04:18:03;14.40;;;6.60;;
18304;SDS011;9278;52.156;21.048;2023-01-15T04:20:31;12.90;;;6.27;;
18304;SDS011;9278;52.156;21.048;2023-01-15T04:22:59;12.35;;;6.13;;
18304;SDS011;9278;52.156;21.048;2023-01-15T04:25:28;13.80;;;6.38;;
18304;SDS011;9278;52.156;21.048;2023-01-15T04:27:56;15.15;;;6.30;;
18304;SDS011;9278;52.156;21.048;2023-01-15T04:30:24;13.05;;;5.80;;
18304;SDS011;9278;52.156;21.048;2023-01-15T04:32:52;12.20;;;6.03;;
18304;SDS011;9278;52.156;21.048;2023-01-15T04:35:22;12.23;;;5.53;;
18304;SDS011;9278;52.156;21.048;2023-01-15T04:37:53;11.68;;;6.00;;
18304;SDS011;9278;52.156;21.048;2023-01-15T04:40:21;12.13;;;6.10;;
18304;SDS011;9278;52.156;21.048;2023-01-15T04:43:08;11.25;;;5.60;;
18304;SDS011;9278;52.156;21.048;2023-01-15T04:45:55;10.80;;;5.33;;
18304;SDS011;9278;52.156;21.048;2023-01-15T04:48:23;14.02;;;5.97;;
18304;SDS011;9278;52.156;21.048;2023-01-15T04:50:53;13.52;;;5.28;;
18304;SDS011;9278;52.156;21.048;2023-01-15T04:53:21;10.07;;;4.82;;
18304;SDS011;9278;52.156;21.048;2023-01-15T04:55:49;10.98;;;5.13;;
18304;SDS011;9278;52.156;21.048;2023-01-15T04:58:18;9.95;;;5.15;;
18304;SDS011;9278;52.156;21.048;2023-01-15T05:00:46;8.68;;;4.90;;
18304;SDS011;9278;52.156;21.048;2023-01-15T05:03:14;9.90;;;4.95;;
18304;SDS011;9278;52.156;21.048;2023-01-15T05:05:42;8.82;;;4.50;;
18304;SDS011;9278;52.156;21.048;2023-01-15T05:08:12;9.18;;;4.43;;
18304;SDS011;9278;52.156;21.048;2023-01-15T05:10:40;10.45;;;4.80;;
18304;SDS011;9278;52.156;21.048;2023-01-15T05:13:08;10.32;;;4.80;;
18304;SDS011;9278;52.156;21.048;2023-01-15T05:15:37;9.02;;;4.30;;
18304;SDS011;9278;52.156;21.048;2023-01-15T05:18:06;10.50;;;4.32;;
18304;SDS011;9278;52.156;21.048;2023-01-15T05:20:35;8.90;;;4.40;;
18304;SDS011;9278;52.156;21.048;2023-01-15T05:23:03;12.13;;;4.13;;
18304;SDS011;9278;52.156;21.048;2023-01-15T05:25:33;8.23;;;4.10;;
18304;SDS011;9278;52.156;21.048;2023-01-15T05:28:03;8.90;;;4.28;;
18304;SDS011;9278;52.156;21.048;2023-01-15T05:30:31;8.63;;;3.92;;
18304;SDS011;9278;52.156;21.048;2023-01-15T05:33:00;8.45;;;3.92;;
18304;SDS011;9278;52.156;21.048;2023-01-15T05:35:28;7.18;;;3.88;;
18304;SDS011;9278;52.156;21.048;2023-01-15T05:37:56;7.75;;;3.78;;
18304;SDS011;9278;52.156;21.048;2023-01-15T05:40:24;5.75;;;3.15;;
18304;SDS011;9278;52.156;21.048;2023-01-15T05:42:54;6.80;;;3.38;;
18304;SDS011;9278;52.156;21.048;2023-01-15T05:45:22;8.18;;;3.60;;
18304;SDS011;9278;52.156;21.048;2023-01-15T05:47:51;6.45;;;3.72;;
18304;SDS011;9278;52.156;21.048;2023-01-15T05:50:19;7.03;;;3.50;;
18304;SDS011;9278;52.156;21.048;2023-01-15T05:52:48;7.13;;;3.53;;
18304;SDS011;9278;52.156;21.048;2023-01-15T05:55:16;6.30;;;3.47;;
18304;SDS011;9278;52.156;21.048;2023-01-15T05:57:44;8.15;;;3.88;;
18304;SDS011;9278;52.156;21.048;2023-01-15T06:00:14;8.20;;;3.70;;
18304;SDS011;9278;52.156;21.048;2023-01-15T06:02:46;6.75;;;3.60;;
18304;SDS011;9278;52.156;21.048;2023-01-15T06:05:15;7.03;;;3.53;;
18304;SDS011;9278;52.156;21.048;2023-01-15T06:07:49;6.57;;;3.60;;
18304;SDS011;9278;52.156;21.048;2023-01-15T06:10:18;4.47;;;2.85;;
18304;SDS011;9278;52.156;21.048;2023-01-15T06:12:46;5.70;;;3.22;;
18304;SDS011;9278;52.156;21.048;2023-01-15T06:15:16;5.55;;;3.05;;
18304;SDS011;9278;52.156;21.048;2023-01-15T06:17:44;7.43;;;3.60;;
18304;SDS011;9278;52.156;21.048;2023-01-15T06:20:15;7.18;;;3.05;;
18304;SDS011;9278;52.156;21.048;2023-01-15T06:22:44;6.35;;;2.72;;
18304;SDS011;9278;52.156;21.048;2023-01-15T06:25:12;7.38;;;3.22;;
18304;SDS011;9278;52.156;21.048;2023-01-15T06:27:40;5.18;;;2.63;;
18304;SDS011;9278;52.156;21.048;2023-01-15T06:30:10;9.00;;;3.17;;
18304;SDS011;9278;52.156;21.048;2023-01-15T06:32:40;6.35;;;3.20;;
18304;SDS011;9278;52.156;21.048;2023-01-15T06:35:08;5.57;;;3.28;;
18304;SDS011;9278;52.156;21.048;2023-01-15T06:37:37;5.15;;;2.90;;
18304;SDS011;9278;52.156;21.048;2023-01-15T06:40:06;6.18;;;2.88;;
18304;SDS011;9278;52.156;21.048;2023-01-15T06:42:35;5.28;;;2.83;;
18304;SDS011;9278;52.156;21.048;2023-01-15T06:45:21;5.22;;;2.92;;
18304;SDS011;9278;52.156;21.048;2023-01-15T06:48:08;5.57;;;2.70;;
18304;SDS011;9278;52.156;21.048;2023-01-15T06:50:36;5.90;;;2.90;;
18304;SDS011;9278;52.156;21.048;2023-01-15T06:53:04;4.68;;;2.60;;
18304;SDS011;9278;52.156;21.048;2023-01-15T06:55:32;5.90;;;2.70;;
18304;SDS011;9278;52.156;21.048;2023-01-15T06:58:01;6.80;;;2.67;;
18304;SDS011;9278;52.156;21.048;2023-01-15T07:00:29;5.45;;;2.60;;
18304;SDS011;9278;52.156;21.048;2023-01-15T07:02:58;5.43;;;2.80;;
18304;SDS011;9278;52.156;21.048;2023-01-15T07:05:28;5.43;;;2.97;;
18304;SDS011;9278;52.156;21.048;2023-01-15T07:07:57;7.82;;;2.80;;
18304;SDS011;9278;52.156;21.048;2023-01-15T07:10:25;5.40;;;2.90;;
18304;SDS011;9278;52.156;21.048;2023-01-15T07:12:53;6.72;;;2.72;;
18304;SDS011;9278;52.156;21.048;2023-01-15T07:15:21;5.97;;;2.53;;
18304;SDS011;9278;52.156;21.048;2023-01-15T07:17:52;4.22;;;2.50;;
18304;SDS011;9278;52.156;21.048;2023-01-15T07:20:21;5.72;;;2.53;;
18304;SDS011;9278;52.156;21.048;2023-01-15T07:22:51;5.10;;;2.75;;
18304;SDS011;9278;52.156;21.048;2023-01-15T07:25:19;7.28;;;2.72;;
18304;SDS011;9278;52.156;21.048;2023-01-15T07:27:47;6.82;;;2.97;;
18304;SDS011;9278;52.156;21.048;2023-01-15T07:30:16;4.95;;;2.78;;
18304;SDS011;9278;52.156;21.048;2023-01-15T07:32:44;6.28;;;2.85;;
18304;SDS011;9278;52.156;21.048;2023-01-15T07:35:12;6.63;;;2.90;;
18304;SDS011;9278;52.156;21.048;2023-01-15T07:37:41;6.05;;;2.83;;
18304;SDS011;9278;52.156;21.048;2023-01-15T07:40:12;5.20;;;2.88;;
18304;SDS011;9278;52.156;21.048;2023-01-15T07:42:40;7.22;;;2.90;;
18304;SDS011;9278;52.156;21.048;2023-01-15T07:45:26;5.63;;;2.38;;
18304;SDS011;9278;52.156;21.048;2023-01-15T07:48:26;6.10;;;2.75;;
18304;SDS011;9278;52.156;21.048;2023-01-15T07:51:12;4.72;;;2.20;;
18304;SDS011;9278;52.156;21.048;2023-01-15T07:53:40;6.05;;;3.00;;
18304;SDS011;9278;52.156;21.048;2023-01-15T07:56:10;4.68;;;2.53;;
18304;SDS011;9278;52.156;21.048;2023-01-15T07:58:38;7.50;;;2.90;;
18304;SDS011;9278;52.156;21.048;2023-01-15T08:01:06;5.03;;;2.78;;
18304;SDS011;9278;52.156;21.048;2023-01-15T08:03:35;6.30;;;2.80;;
18304;SDS011;9278;52.156;21.048;2023-01-15T08:06:03;5.15;;;2.80;;
18304;SDS011;9278;52.156;21.048;2023-01-15T08:08:32;7.75;;;2.65;;
18304;SDS011;9278;52.156;21.048;2023-01-15T08:11:00;6.60;;;3.00;;
18304;SDS011;9278;52.156;21.048;2023-01-15T08:13:48;9.10;;;3.08;;
18304;SDS011;9278;52.156;21.048;2023-01-15T08:16:34;8.65;;;3.22;;
18304;SDS011;9278;52.156;21.048;2023-01-15T08:19:03;5.57;;;2.78;;
18304;SDS011;9278;52.156;21.048;2023-01-15T08:21:31;4.18;;;2.42;;
18304;SDS011;9278;52.156;21.048;2023-01-15T08:23:59;5.32;;;2.63;;
18304;SDS011;9278;52.156;21.048;2023-01-15T08:26:27;6.57;;;2.72;;
18304;SDS011;9278;52.156;21.048;2023-01-15T08:28:57;6.47;;;2.72;;
18304;SDS011;9278;52.156;21.048;2023-01-15T08:31:25;5.72;;;2.53;;
18304;SDS011;9278;52.156;21.048;2023-01-15T08:33:53;5.57;;;2.88;;
18304;SDS011;9278;52.156;21.048;2023-01-15T08:36:22;7.40;;;3.17;;
18304;SDS011;9278;52.156;21.048;2023-01-15T08:38:50;7.30;;;2.85;;
18304;SDS011;9278;52.156;21.048;2023-01-15T08:41:18;6.57;;;2.88;;
18304;SDS011;9278;52.156;21.048;2023-01-15T08:43:46;5.88;;;2.97;;
18304;SDS011;9278;52.156;21.048;2023-01-15T08:46:16;8.73;;;3.00;;
18304;SDS011;9278;52.156;21.048;2023-01-15T08:48:44;5.28;;;2.90;;
18304;SDS011;9278;52.156;21.048;2023-01-15T08:51:13;6.05;;;2.80;;
18304;SDS011;9278;52.156;21.048;2023-01-15T08:53:42;5.97;;;2.60;;
18304;SDS011;9278;52.156;21.048;2023-01-15T08:56:11;6.53;;;2.65;;
18304;SDS011;9278;52.156;21.048;2023-01-15T08:58:39;6.93;;;2.92;;
18304;SDS011;9278;52.156;21.048;2023-01-15T09:01:10;6.00;;;3.10;;
18304;SDS011;9278;52.156;21.048;2023-01-15T09:03:43;5.50;;;2.90;;
18304;SDS011;9278;52.156;21.048;2023-01-15T09:06:11;6.25;;;3.00;;
18304;SDS011;9278;52.156;21.048;2023-01-15T09:08:40;5.35;;;2.53;;
18304;SDS011;9278;52.156;21.048;2023-01-15T09:11:08;6.00;;;2.88;;
18304;SDS011;9278;52.156;21.048;2023-01-15T09:13:38;5.97;;;3.13;;
18304;SDS011;9278;52.156;21.048;2023-01-15T09:16:09;6.13;;;2.60;;
18304;SDS011;9278;52.156;21.048;2023-01-15T09:18:38;6.32;;;2.72;;
18304;SDS011;9278;52.156;21.048;2023-01-15T09:21:08;4.18;;;2.67;;
18304;SDS011;9278;52.156;21.048;2023-01-15T09:23:36;7.43;;;3.10;;
18304;SDS011;9278;52.156;21.048;2023-01-15T09:26:05;6.63;;;3.15;;
18304;SDS011;9278;52.156;21.048;2023-01-15T09:28:34;5.72;;;2.60;;
18304;SDS011;9278;52.156;21.048;2023-01-15T09:31:03;9.90;;;2.95;;
18304;SDS011;9278;52.156;21.048;2023-01-15T09:33:31;6.03;;;2.58;;
18304;SDS011;9278;52.156;21.048;2023-01-15T09:35:59;6.75;;;3.05;;
18304;SDS011;9278;52.156;21.048;2023-01-15T09:38:29;8.93;;;2.97;;
18304;SDS011;9278;52.156;21.048;2023-01-15T09:41:01;7.47;;;3.30;;
18304;SDS011;9278;52.156;21.048;2023-01-15T09:43:58;7.35;;;3.00;;
18304;SDS011;9278;52.156;21.048;2023-01-15T09:46:37;9.07;;;3.10;;
18304;SDS011;9278;52.156;21.048;2023-01-15T09:49:16;6.65;;;3.50;;
18304;SDS011;9278;52.156;21.048;2023-01-15T09:51:57;5.97;;;3.00;;
18304;SDS011;9278;52.156;21.048;2023-01-15T09:54:39;6.82;;;3.10;;
18304;SDS011;9278;52.156;21.048;2023-01-15T09:57:17;8.43;;;3.35;;
18304;SDS011;9278;52.156;21.048;2023-01-15T09:59:48;6.22;;;2.95;;
18304;SDS011;9278;52.156;21.048;2023-01-15T10:02:21;7.55;;;3.38;;
18304;SDS011;9278;52.156;21.048;2023-01-15T10:04:52;9.43;;;3.72;;
18304;SDS011;9278;52.156;21.048;2023-01-15T10:07:26;7.15;;;3.28;;
18304;SDS011;9278;52.156;21.048;2023-01-15T10:10:02;7.80;;;3.40;;
18304;SDS011;9278;52.156;21.048;2023-01-15T10:12:33;9.73;;;3.58;;
18304;SDS011;9278;52.156;21.048;2023-01-15T10:15:11;7.22;;;3.38;;
18304;SDS011;9278;52.156;21.048;2023-01-15T10:17:45;6.80;;;3.33;;
18304;SDS011;9278;52.156;21.048;2023-01-15T10:20:16;7.78;;;3.95;;
18304;SDS011;9278;52.156;21.048;2023-01-15T10:22:59;9.52;;;3.40;;
18304;SDS011;9278;52.156;21.048;2023-01-15T10:25:39;7.30;;;3.95;;
18304;SDS011;9278;52.156;21.048;2023-01-15T10:28:16;9.98;;;3.95;;
18304;SDS011;9278;52.156;21.048;2023-01-15T10:30:49;7.68;;;3.33;;
18304;SDS011;9278;52.156;21.048;2023-01-15T10:36:13;8.32;;;3.60;;
18304;SDS011;9278;52.156;21.048;2023-01-15T10:38:48;9.93;;;4.30;;
18304;SDS011;9278;52.156;21.048;2023-01-15T10:44:14;6.38;;;3.78;;
18304;SDS011;9278;52.156;21.048;2023-01-15T10:46:48;7.90;;;3.67;;
18304;SDS011;9278;52.156;21.048;2023-01-15T10:49:25;8.88;;;4.40;;
18304;SDS011;9278;52.156;21.048;2023-01-15T10:51:55;7.05;;;4.07;;
18304;SDS011;9278;52.156;21.048;2023-01-15T10:54:28;9.15;;;4.32;;
18304;SDS011;9278;52.156;21.048;2023-01-15T10:57:02;8.20;;;4.00;;
18304;SDS011;9278;52.156;21.048;2023-01-15T10:59:38;9.88;;;4.25;;
18304;SDS011;9278;52.156;21.048;2023-01-15T11:02:18;7.50;;;4.30;;
18304;SDS011;9278;52.156;21.048;2023-01-15T11:04:53;11.68;;;4.65;;
18304;SDS011;9278;52.156;21.048;2023-01-15T11:07:23;11.07;;;4.20;;
18304;SDS011;9278;52.156;21.048;2023-01-15T11:09:56;9.00;;;4.22;;
18304;SDS011;9278;52.156;21.048;2023-01-15T11:12:30;10.90;;;4.70;;
18304;SDS011;9278;52.156;21.048;2023-01-15T11:15:20;9.10;;;4.45;;
18304;SDS011;9278;52.156;21.048;2023-01-15T11:18:10;7.30;;;4.15;;
18304;SDS011;9278;52.156;21.048;2023-01-15T11:20:59;12.65;;;4.68;;
18304;SDS011;9278;52.156;21.048;2023-01-15T11:23:28;10.00;;;4.43;;
18304;SDS011;9278;52.156;21.048;2023-01-15T11:26:02;7.75;;;4.15;;
18304;SDS011;9278;52.156;21.048;2023-01-15T11:28:34;10.55;;;4.63;;
18304;SDS011;9278;52.156;21.048;2023-01-15T11:31:05;10.23;;;4.72;;
18304;SDS011;9278;52.156;21.048;2023-01-15T11:33:35;11.52;;;4.68;;
18304;SDS011;9278;52.156;21.048;2023-01-15T11:36:04;11.48;;;5.05;;
18304;SDS011;9278;52.156;21.048;2023-01-15T11:38:41;11.30;;;5.10;;
18304;SDS011;9278;52.156;21.048;2023-01-15T11:41:15;9.82;;;4.78;;
18304;SDS011;9278;52.156;21.048;2023-01-15T11:43:55;11.77;;;5.20;;
18304;SDS011;9278;52.156;21.048;2023-01-15T11:46:44;10.85;;;5.47;;
18304;SDS011;9278;52.156;21.048;2023-01-15T11:49:30;11.95;;;5.20;;
18304;SDS011;9278;52.156;21.048;2023-01-15T11:52:21;10.73;;;5.50;;
18304;SDS011;9278;52.156;21.048;2023-01-15T11:54:53;13.95;;;5.82;;
18304;SDS011;9278;52.156;21.048;2023-01-15T11:57:22;13.90;;;5.85;;
18304;SDS011;9278;52.156;21.048;2023-01-15T11:59:55;11.75;;;5.82;;
18304;SDS011;9278;52.156;21.048;2023-01-15T12:02:27;11.70;;;5.80;;
18304;SDS011;9278;52.156;21.048;2023-01-15T12:05:01;10.95;;;5.88;;
18304;SDS011;9278;52.156;21.048;2023-01-15T12:07:31;11.52;;;5.50;;
18304;SDS011;9278;52.156;21.048;2023-01-15T12:10:15;12.00;;;5.90;;
18304;SDS011;9278;52.156;21.048;2023-01-15T12:13:10;16.15;;;6.85;;
18304;SDS011;9278;52.156;21.048;2023-01-15T12:15:48;10.38;;;5.55;;
18304;SDS011;9278;52.156;21.048;2023-01-15T12:21:38;11.13;;;5.43;;
18304;SDS011;9278;52.156;21.048;2023-01-15T12:27:22;9.93;;;5.38;;
18304;SDS011;9278;52.156;21.048;2023-01-15T12:30:03;10.65;;;5.38;;
18304;SDS011;9278;52.156;21.048;2023-01-15T12:32:47;14.75;;;5.75;;
18304;SDS011;9278;52.156;21.048;2023-01-15T12:35:21;15.02;;;5.75;;
18304;SDS011;9278;52.156;21.048;2023-01-15T12:37:55;11.50;;;5.68;;
18304;SDS011;9278;52.156;21.048;2023-01-15T12:40:29;12.68;;;5.80;;
18304;SDS011;9278;52.156;21.048;2023-01-15T12:43:07;11.32;;;5.60;;
18304;SDS011;9278;52.156;21.048;2023-01-15T12:45:59;12.60;;;6.00;;
18304;SDS011;9278;52.156;21.048;2023-01-15T12:48:34;12.80;;;6.35;;
18304;SDS011;9278;52.156;21.048;2023-01-15T12:51:08;14.63;;;5.70;;
18304;SDS011;9278;52.156;21.048;2023-01-15T12:53:41;13.65;;;6.25;;
18304;SDS011;9278;52.156;21.048;2023-01-15T12:56:13;13.40;;;6.38;;
18304;SDS011;9278;52.156;21.048;2023-01-15T12:58:48;12.30;;;5.95;;
18304;SDS011;9278;52.156;21.048;2023-01-15T13:01:22;12.20;;;6.10;;
18304;SDS011;9278;52.156;21.048;2023-01-15T13:04:02;11.05;;;5.55;;
18304;SDS011;9278;52.156;21.048;2023-01-15T13:06:37;13.15;;;5.35;;
18304;SDS011;9278;52.156;21.048;2023-01-15T13:09:13;15.40;;;6.30;;
18304;SDS011;9278;52.156;21.048;2023-01-15T13:11:56;15.45;;;5.93;;
18304;SDS011;9278;52.156;21.048;2023-01-15T13:14:24;12.50;;;6.13;;
18304;SDS011;9278;52.156;21.048;2023-01-15T13:16:53;13.93;;;5.95;;
18304;SDS011;9278;52.156;21.048;2023-01-15T13:19:34;11.35;;;5.68;;
18304;SDS011;9278;52.156;21.048;2023-01-15T13:22:11;12.25;;;6.28;;
18304;SDS011;9278;52.156;21.048;2023-01-15T13:24:50;14.20;;;6.25;;
18304;SDS011;9278;52.156;21.048;2023-01-15T13:27:40;14.05;;;5.82;;
18304;SDS011;9278;52.156;21.048;2023-01-15T13:30:20;12.38;;;5.53;;
18304;SDS011;9278;52.156;21.048;2023-01-15T13:33:03;13.48;;;6.15;;
18304;SDS011;9278;52.156;21.048;2023-01-15T13:35:45;15.10;;;5.72;;
18304;SDS011;9278;52.156;21.048;2023-01-15T13:38:18;14.90;;;6.18;;
18304;SDS011;9278;52.156;21.048;2023-01-15T13:40:49;11.35;;;5.85;;
18304;SDS011;9278;52.156;21.048;2023-01-15T13:43:23;11.82;;;5.32;;
18304;SDS011;9278;52.156;21.048;2023-01-15T13:45:57;12.75;;;5.50;;
18304;SDS011;9278;52.156;21.048;2023-01-15T13:48:28;12.98;;;5.72;;
18304;SDS011;9278;52.156;21.048;2023-01-15T13:51:00;9.77;;;5.18;;
18304;SDS011;9278;52.156;21.048;2023-01-15T13:53:31;13.85;;;6.40;;
18304;SDS011;9278;52.156;21.048;2023-01-15T13:56:03;11.48;;;5.63;;
18304;SDS011;9278;52.156;21.048;2023-01-15T13:58:37;15.00;;;5.85;;
18304;SDS011;9278;52.156;21.048;2023-01-15T14:01:20;12.90;;;6.07;;
18304;SDS011;9278;52.156;21.048;2023-01-15T14:03:54;11.95;;;5.63;;
18304;SDS011;9278;52.156;21.048;2023-01-15T14:06:42;14.68;;;5.75;;
18304;SDS011;9278;52.156;21.048;2023-01-15T14:09:12;13.95;;;5.32;;
18304;SDS011;9278;52.156;21.048;2023-01-15T14:11:57;11.25;;;5.45;;
18304;SDS011;9278;52.156;21.048;2023-01-15T14:14:40;12.18;;;5.43;;
18304;SDS011;9278;52.156;21.048;2023-01-15T14:17:47;10.93;;;5.47;;
18304;SDS011;9278;52.156;21.048;2023-01-15T14:20:51;11.18;;;5.32;;
18304;SDS011;9278;52.156;21.048;2023-01-15T14:23:31;10.55;;;5.10;;
18304;SDS011;9278;52.156;21.048;2023-01-15T14:26:26;13.40;;;5.53;;
18304;SDS011;9278;52.156;21.048;2023-01-15T14:29:06;11.80;;;5.53;;
18304;SDS011;9278;52.156;21.048;2023-01-15T14:31:58;11.88;;;5.07;;
18304;SDS011;9278;52.156;21.048;2023-01-15T14:34:34;13.55;;;5.28;;
18304;SDS011;9278;52.156;21.048;2023-01-15T14:37:03;11.60;;;5.38;;
18304;SDS011;9278;52.156;21.048;2023-01-15T14:39:39;11.52;;;5.38;;
18304;SDS011;9278;52.156;21.048;2023-01-15T14:42:14;12.05;;;5.57;;
18304;SDS011;9278;52.156;21.048;2023-01-15T14:45:16;13.13;;;6.45;;
18304;SDS011;9278;52.156;21.048;2023-01-15T14:47:48;11.25;;;5.53;;
18304;SDS011;9278;52.156;21.048;2023-01-15T14:53:12;11.98;;;5.63;;
18304;SDS011;9278;52.156;21.048;2023-01-15T14:55:52;9.38;;;4.85;;
18304;SDS011;9278;52.156;21.048;2023-01-15T14:58:29;12.02;;;5.72;;
18304;SDS011;9278;52.156;21.048;2023-01-15T15:01:14;10.23;;;5.00;;
18304;SDS011;9278;52.156;21.048;2023-01-15T15:03:51;11.43;;;5.10;;
18304;SDS011;9278;52.156;21.048;2023-01-15T15:06:24;11.23;;;5.22;;
18304;SDS011;9278;52.156;21.048;2023-01-15T15:08:54;10.68;;;5.50;;
18304;SDS011;9278;52.156;21.048;2023-01-15T15:11:32;11.27;;;5.32;;
18304;SDS011;9278;52.156;21.048;2023-01-15T15:14:22;11.10;;;5.10;;
18304;SDS011;9278;52.156;21.048;2023-01-15T15:16:56;10.98;;;5.13;;
18304;SDS011;9278;52.156;21.048;2023-01-15T15:19:28;13.35;;;6.00;;
18304;SDS011;9278;52.156;21.048;2023-01-15T15:22:02;11.23;;;5.32;;
18304;SDS011;9278;52.156;21.048;2023-01-15T15:24:34;13.18;;;5.60;;
18304;SDS011;9278;52.156;21.048;2023-01-15T15:27:14;11.02;;;5.07;;
18304;SDS011;9278;52.156;21.048;2023-01-15T15:29:44;12.05;;;5.60;;
18304;SDS011;9278;52.156;21.048;2023-01-15T15:32:13;10.63;;;5.45;;
18304;SDS011;9278;52.156;21.048;2023-01-15T15:34:44;12.35;;;5.63;;
18304;SDS011;9278;52.156;21.048;2023-01-15T15:37:17;13.82;;;5.80;;
18304;SDS011;9278;52.156;21.048;2023-01-15T15:39:48;13.50;;;5.45;;